Řízení letového provozu České republiky
Letiste: LKTB Aktualizace: 23.08.2017 08:03:19  UTC
 METAR LKTB 23.08. 08:00 ...
METAR LKTB 230800Z 35007KT 9999 FEW033 16/08 Q1020 NOSIG RMK REG QNH 1017=
 TAF LKTB 23.08. 05:00 ...
TAF LKTB 230500Z 2306/2412 32003KT CAVOK      BECMG 2316/2318 VRB02KT      BECMG 2408/2410 20005KT=